createdAt,value
2018-07-21T00:00:09.412Z,5.30
2018-07-21T00:02:36.726Z,5.03
2018-07-21T00:05:04.126Z,5.73
2018-07-21T00:07:31.397Z,4.90
2018-07-21T00:09:58.659Z,5.10
2018-07-21T00:12:25.944Z,5.20
2018-07-21T00:14:53.202Z,5.10
2018-07-21T00:17:20.489Z,4.60
2018-07-21T00:19:47.737Z,4.70
2018-07-21T00:22:14.989Z,5.80
2018-07-21T00:24:42.260Z,5.30
2018-07-21T00:27:09.549Z,5.13
2018-07-21T00:29:36.820Z,5.20
2018-07-21T00:32:04.069Z,4.83
2018-07-21T00:34:31.330Z,5.03
2018-07-21T00:36:58.633Z,4.70
2018-07-21T00:39:25.893Z,5.53
2018-07-21T00:41:53.180Z,5.93
2018-07-21T00:44:20.420Z,4.57
2018-07-21T00:46:47.737Z,4.70
2018-07-21T00:49:15.003Z,4.73
2018-07-21T00:51:42.273Z,4.70
2018-07-21T00:54:09.600Z,5.63
2018-07-21T00:56:36.847Z,4.97
2018-07-21T00:59:04.149Z,5.10
2018-07-21T01:01:31.421Z,4.93
2018-07-21T01:03:58.730Z,5.73
2018-07-21T01:06:26.020Z,4.50
2018-07-21T01:08:53.321Z,4.57
2018-07-21T01:11:20.601Z,5.03
2018-07-21T01:13:47.996Z,4.50
2018-07-21T01:16:15.266Z,5.23
2018-07-21T01:18:42.517Z,4.63
2018-07-21T01:21:09.813Z,5.27
2018-07-21T01:23:37.064Z,5.10
2018-07-21T01:26:04.379Z,5.00
2018-07-21T01:28:31.669Z,5.37
2018-07-21T01:30:58.990Z,5.53
2018-07-21T01:33:26.445Z,4.97
2018-07-21T01:35:53.713Z,4.70
2018-07-21T01:38:21.021Z,5.07
2018-07-21T01:40:48.292Z,5.17
2018-07-21T01:43:15.561Z,5.30
2018-07-21T01:45:42.846Z,5.50
2018-07-21T01:48:10.087Z,5.70
2018-07-21T01:50:37.349Z,4.77
2018-07-21T01:53:04.649Z,4.90
2018-07-21T01:55:31.949Z,5.00
2018-07-21T01:57:59.284Z,4.60
2018-07-21T02:00:26.564Z,5.10
2018-07-21T02:02:53.836Z,5.20
2018-07-21T02:05:21.076Z,5.57
2018-07-21T02:07:48.346Z,5.23
2018-07-21T02:10:15.622Z,5.50
2018-07-21T02:12:42.900Z,5.60
2018-07-21T02:15:10.161Z,5.07
2018-07-21T02:17:37.437Z,5.20
2018-07-21T02:20:04.811Z,5.03
2018-07-21T02:22:32.121Z,4.90
2018-07-21T02:24:59.390Z,4.80
2018-07-21T02:27:26.636Z,5.00
2018-07-21T02:29:53.910Z,4.80
2018-07-21T02:32:21.166Z,5.27
2018-07-21T02:34:48.413Z,5.40
2018-07-21T02:37:15.668Z,5.37
2018-07-21T02:39:42.927Z,5.10
2018-07-21T02:42:10.191Z,5.53
2018-07-21T02:44:37.451Z,5.40
2018-07-21T02:47:04.736Z,4.20
2018-07-21T02:49:32.005Z,5.07
2018-07-21T02:51:59.316Z,5.30
2018-07-21T02:54:26.579Z,4.80
2018-07-21T02:56:53.853Z,4.80
2018-07-21T02:59:21.340Z,5.20
2018-07-21T03:01:48.622Z,5.80
2018-07-21T03:04:15.861Z,4.93
2018-07-21T03:06:43.088Z,4.63
2018-07-21T03:09:11.754Z,5.30
2018-07-21T03:11:39.073Z,4.90
2018-07-21T03:14:06.405Z,5.30
2018-07-21T03:16:33.670Z,5.00
2018-07-21T03:19:00.987Z,4.93
2018-07-21T03:21:28.271Z,4.80
2018-07-21T03:23:55.531Z,5.60
2018-07-21T03:26:22.801Z,4.90
2018-07-21T03:28:50.065Z,4.70
2018-07-21T03:31:17.405Z,5.13
2018-07-21T03:33:44.670Z,5.00
2018-07-21T03:36:11.984Z,5.10
2018-07-21T03:38:39.233Z,5.43
2018-07-21T03:41:06.522Z,4.80
2018-07-21T03:43:33.771Z,4.83
2018-07-21T03:46:01.032Z,5.20
2018-07-21T03:48:28.273Z,4.80
2018-07-21T03:50:55.530Z,5.53
2018-07-21T03:53:22.801Z,5.00
2018-07-21T03:55:50.057Z,5.30
2018-07-21T03:58:17.343Z,5.50
2018-07-21T04:00:44.604Z,4.97
2018-07-21T04:03:11.847Z,5.30
2018-07-21T04:05:39.107Z,5.00
2018-07-21T04:08:06.344Z,5.23
2018-07-21T04:10:33.636Z,4.90
2018-07-21T04:13:00.946Z,5.00
2018-07-21T04:15:28.206Z,5.50
2018-07-21T04:17:55.444Z,5.60
2018-07-21T04:20:22.756Z,4.93
2018-07-21T04:22:49.993Z,4.57
2018-07-21T04:25:17.263Z,4.57
2018-07-21T04:27:44.533Z,5.00
2018-07-21T04:30:11.890Z,5.10
2018-07-21T04:32:39.130Z,5.40
2018-07-21T04:35:06.470Z,5.60
2018-07-21T04:37:33.732Z,4.83
2018-07-21T04:40:00.986Z,4.33
2018-07-21T04:42:28.244Z,5.00
2018-07-21T04:44:55.501Z,4.60
2018-07-21T04:47:22.798Z,5.33
2018-07-21T04:49:50.070Z,4.27
2018-07-21T04:52:17.369Z,5.00
2018-07-21T04:54:45.053Z,5.13
2018-07-21T04:57:12.312Z,4.60
2018-07-21T04:59:39.650Z,4.10
2018-07-21T05:02:07.153Z,5.17
2018-07-21T05:04:34.428Z,4.93
2018-07-21T05:07:01.717Z,4.73
2018-07-21T05:09:28.967Z,4.33
2018-07-21T05:11:56.246Z,4.80
2018-07-21T05:14:23.491Z,5.37
2018-07-21T05:16:50.796Z,5.23
2018-07-21T05:19:18.082Z,5.20
2018-07-21T05:21:45.389Z,5.20
2018-07-21T05:24:12.708Z,5.13
2018-07-21T05:26:39.997Z,4.90
2018-07-21T05:29:07.251Z,4.50
2018-07-21T05:31:34.501Z,4.90
2018-07-21T05:34:01.745Z,4.73
2018-07-21T05:36:29.025Z,5.00
2018-07-21T05:38:56.271Z,4.97
2018-07-21T05:41:23.522Z,4.90
2018-07-21T05:43:50.772Z,4.87
2018-07-21T05:46:18.032Z,4.80
2018-07-21T05:48:45.315Z,5.03
2018-07-21T05:51:12.634Z,4.90
2018-07-21T05:53:40.002Z,4.60
2018-07-21T05:56:07.249Z,5.10
2018-07-21T05:58:34.493Z,4.60
2018-07-21T06:01:01.775Z,5.00
2018-07-21T06:03:29.051Z,4.77
2018-07-21T06:05:56.293Z,4.93
2018-07-21T06:08:23.575Z,4.70
2018-07-21T06:10:51.262Z,5.43
2018-07-21T06:13:18.551Z,4.80
2018-07-21T06:15:45.833Z,5.63
2018-07-21T06:18:13.122Z,5.03
2018-07-21T06:20:40.501Z,5.00
2018-07-21T06:23:07.751Z,4.87
2018-07-21T06:25:35.005Z,5.20
2018-07-21T06:28:02.445Z,5.37
2018-07-21T06:30:29.677Z,4.90
2018-07-21T06:32:57.375Z,5.70
2018-07-21T06:35:24.738Z,5.57
2018-07-21T06:37:52.037Z,5.37
2018-07-21T06:40:19.311Z,5.03
2018-07-21T06:42:46.589Z,5.00
2018-07-21T06:45:13.859Z,5.10
2018-07-21T06:47:41.137Z,4.57
2018-07-21T06:50:08.760Z,4.90
2018-07-21T06:52:36.038Z,5.27
2018-07-21T06:55:03.328Z,4.80
2018-07-21T06:57:30.602Z,4.93
2018-07-21T06:59:57.862Z,4.83
2018-07-21T07:02:25.144Z,4.90
2018-07-21T07:04:52.419Z,5.07
2018-07-21T07:07:19.701Z,5.70
2018-07-21T07:09:47.034Z,5.17
2018-07-21T07:12:14.308Z,5.33
2018-07-21T07:14:41.924Z,4.90
2018-07-21T07:17:09.194Z,5.53
2018-07-21T07:19:36.445Z,5.00
2018-07-21T07:22:03.744Z,5.10
2018-07-21T07:24:31.113Z,5.10
2018-07-21T07:26:58.389Z,5.13
2018-07-21T07:29:25.643Z,4.63
2018-07-21T07:31:52.937Z,5.33
2018-07-21T07:34:20.193Z,5.27
2018-07-21T07:36:47.477Z,5.37
2018-07-21T07:39:14.723Z,5.20
2018-07-21T07:41:42.006Z,5.63
2018-07-21T07:44:09.273Z,5.43
2018-07-21T07:46:36.808Z,6.13
2018-07-21T07:49:04.128Z,5.70
2018-07-21T07:51:31.569Z,4.77
2018-07-21T07:53:58.849Z,4.73
2018-07-21T07:56:26.319Z,4.73
2018-07-21T07:58:53.592Z,5.17
2018-07-21T08:01:20.999Z,5.00
2018-07-21T08:03:48.243Z,5.07
2018-07-21T08:06:15.504Z,5.30
2018-07-21T08:08:42.856Z,5.00
2018-07-21T08:11:10.350Z,4.83
2018-07-21T08:13:37.688Z,4.70
2018-07-21T08:16:05.165Z,4.80
2018-07-21T08:18:32.445Z,5.20
2018-07-21T08:20:59.702Z,5.20
2018-07-21T08:23:26.969Z,5.50
2018-07-21T08:25:54.245Z,4.50
2018-07-21T08:28:21.609Z,5.10
2018-07-21T08:30:49.119Z,5.83
2018-07-21T08:33:16.390Z,5.63
2018-07-21T08:35:43.653Z,5.17
2018-07-21T08:38:10.887Z,5.20
2018-07-21T08:40:38.126Z,5.10
2018-07-21T08:43:05.575Z,5.37
2018-07-21T08:45:32.979Z,5.23
2018-07-21T08:48:00.298Z,5.20
2018-07-21T08:50:27.562Z,5.60
2018-07-21T08:52:54.809Z,5.20
2018-07-21T08:55:22.108Z,6.20
2018-07-21T08:57:49.403Z,5.03
2018-07-21T09:00:16.749Z,6.47
2018-07-21T09:02:44.462Z,5.40
2018-07-21T09:05:11.870Z,5.70
2018-07-21T09:07:39.189Z,5.77
2018-07-21T09:10:06.749Z,5.53
2018-07-21T09:12:34.368Z,5.47
2018-07-21T09:15:01.660Z,6.50
2018-07-21T09:17:28.913Z,6.03
2018-07-21T09:19:56.286Z,5.73
2018-07-21T09:22:23.608Z,6.13
2018-07-21T09:24:51.240Z,5.97
2018-07-21T09:27:18.622Z,6.13
2018-07-21T09:29:45.882Z,6.93
2018-07-21T09:32:13.801Z,6.80
2018-07-21T09:34:41.150Z,6.80
2018-07-21T09:37:08.462Z,6.50
2018-07-21T09:39:35.776Z,6.57
2018-07-21T09:42:03.061Z,5.77
2018-07-21T09:44:30.357Z,6.20
2018-07-21T09:46:57.606Z,6.77
2018-07-21T09:49:24.849Z,6.03
2018-07-21T09:51:52.458Z,6.43
2018-07-21T09:54:19.706Z,7.13
2018-07-21T09:56:46.969Z,6.57
2018-07-21T09:59:14.249Z,6.87
2018-07-21T10:01:41.773Z,6.50
2018-07-21T10:04:09.056Z,7.40
2018-07-21T10:06:36.339Z,7.07
2018-07-21T10:09:03.901Z,7.40
2018-07-21T10:11:31.388Z,7.70
2018-07-21T10:13:58.649Z,7.63
2018-07-21T10:16:25.902Z,8.20
2018-07-21T10:18:53.142Z,7.23
2018-07-21T10:21:20.515Z,7.40
2018-07-21T10:23:47.762Z,7.20
2018-07-21T10:26:20.633Z,7.43
2018-07-21T10:28:53.465Z,7.97
2018-07-21T10:31:20.742Z,7.40
2018-07-21T10:33:48.001Z,7.60
2018-07-21T10:36:15.282Z,7.33
2018-07-21T10:38:42.636Z,8.27
2018-07-21T10:41:09.944Z,7.87
2018-07-21T10:43:37.204Z,9.17
2018-07-21T10:46:04.580Z,8.10
2018-07-21T10:48:31.866Z,8.50
2018-07-21T10:50:59.158Z,7.83
2018-07-21T10:53:26.521Z,9.80
2018-07-21T10:55:53.814Z,8.40
2018-07-21T10:58:21.097Z,8.30
2018-07-21T11:00:48.430Z,9.23
2018-07-21T11:03:15.685Z,9.73
2018-07-21T11:05:42.983Z,9.80
2018-07-21T11:08:10.347Z,9.37
2018-07-21T11:10:37.522Z,8.43
2018-07-21T11:13:04.784Z,9.07
2018-07-21T11:15:32.048Z,9.90
2018-07-21T11:17:59.330Z,9.20
2018-07-21T11:20:26.586Z,9.63
2018-07-21T11:22:53.877Z,8.63
2018-07-21T11:25:21.175Z,9.30
2018-07-21T11:27:48.476Z,9.70
2018-07-21T11:30:15.777Z,9.40
2018-07-21T11:32:43.061Z,10.70
2018-07-21T11:35:10.423Z,9.77
2018-07-21T11:37:37.641Z,10.50
2018-07-21T11:40:04.954Z,11.37
2018-07-21T11:42:32.236Z,10.90
2018-07-21T11:44:59.514Z,11.80
2018-07-21T11:47:26.789Z,12.13
2018-07-21T11:49:54.057Z,9.83
2018-07-21T11:52:21.342Z,10.20
2018-07-21T11:54:48.626Z,10.27
2018-07-21T11:57:15.910Z,10.10
2018-07-21T11:59:43.174Z,9.90
2018-07-21T12:02:10.446Z,10.23
2018-07-21T12:04:37.705Z,9.90
2018-07-21T12:07:05.002Z,10.60
2018-07-21T12:09:32.291Z,10.47
2018-07-21T12:11:59.629Z,10.73
2018-07-21T12:14:26.904Z,10.17
2018-07-21T12:16:54.154Z,10.40
2018-07-21T12:19:21.441Z,10.60
2018-07-21T12:21:49.039Z,10.80
2018-07-21T12:24:16.297Z,10.93
2018-07-21T12:26:43.611Z,10.93
2018-07-21T12:29:10.870Z,10.63
2018-07-21T12:31:38.349Z,10.63
2018-07-21T12:34:05.823Z,10.97
2018-07-21T12:36:33.110Z,10.00
2018-07-21T12:39:00.381Z,10.47
2018-07-21T12:41:27.645Z,10.77
2018-07-21T12:43:54.953Z,9.93
2018-07-21T12:46:22.229Z,11.60
2018-07-21T12:48:49.516Z,10.30
2018-07-21T12:51:17.828Z,11.00
2018-07-21T12:53:45.076Z,9.77
2018-07-21T12:56:12.357Z,10.33
2018-07-21T12:58:39.697Z,10.90
2018-07-21T13:01:07.026Z,10.10
2018-07-21T13:03:34.289Z,10.23
2018-07-21T13:06:01.541Z,10.47
2018-07-21T13:08:28.777Z,11.23
2018-07-21T13:10:56.137Z,10.70
2018-07-21T13:13:23.469Z,10.73
2018-07-21T13:15:50.770Z,10.23
2018-07-21T13:18:18.020Z,10.23
2018-07-21T13:20:45.375Z,11.10
2018-07-21T13:23:12.641Z,10.13
2018-07-21T13:25:39.937Z,11.13
2018-07-21T13:28:07.232Z,9.67
2018-07-21T13:30:34.657Z,10.23
2018-07-21T13:33:01.924Z,9.67
2018-07-21T13:35:29.172Z,10.83
2018-07-21T13:37:56.454Z,10.13
2018-07-21T13:40:23.811Z,10.67
2018-07-21T13:42:51.258Z,9.63
2018-07-21T13:45:18.539Z,9.90
2018-07-21T13:47:45.900Z,11.10
2018-07-21T13:50:13.405Z,10.47
2018-07-21T13:52:40.697Z,10.60
2018-07-21T13:55:07.971Z,10.70
2018-07-21T13:57:35.244Z,10.53
2018-07-21T14:00:02.562Z,10.33
2018-07-21T14:02:29.882Z,11.80
2018-07-21T14:04:57.209Z,9.90
2018-07-21T14:07:24.474Z,9.80
2018-07-21T14:09:51.761Z,10.83
2018-07-21T14:12:19.036Z,10.60
2018-07-21T14:14:46.408Z,10.40
2018-07-21T14:17:13.704Z,11.27
2018-07-21T14:19:41.241Z,10.50
2018-07-21T14:22:08.552Z,10.27
2018-07-21T14:24:35.834Z,10.20
2018-07-21T14:27:03.106Z,10.57
2018-07-21T14:29:30.437Z,10.53
2018-07-21T14:31:57.693Z,9.93
2018-07-21T14:34:24.968Z,11.13
2018-07-21T14:36:52.252Z,11.00
2018-07-21T14:39:19.524Z,11.20
2018-07-21T14:41:46.900Z,12.57
2018-07-21T14:44:14.157Z,10.60
2018-07-21T14:46:41.418Z,10.80
2018-07-21T14:49:08.732Z,10.53
2018-07-21T14:51:36.209Z,11.73
2018-07-21T14:54:03.537Z,10.90
2018-07-21T14:56:30.939Z,10.53
2018-07-21T14:58:58.232Z,10.80
2018-07-21T15:01:25.528Z,13.60
2018-07-21T15:03:52.841Z,11.33
2018-07-21T15:06:20.144Z,12.30
2018-07-21T15:08:47.402Z,12.37
2018-07-21T15:11:14.752Z,11.40
2018-07-21T15:13:42.021Z,11.20
2018-07-21T15:16:09.257Z,10.97
2018-07-21T15:18:36.609Z,11.77
2018-07-21T15:21:03.937Z,11.20
2018-07-21T15:23:31.270Z,10.97
2018-07-21T15:25:58.549Z,11.10
2018-07-21T15:28:25.873Z,12.70
2018-07-21T15:30:53.143Z,12.53
2018-07-21T15:33:20.405Z,13.67
2018-07-21T15:35:54.175Z,15.67
2018-07-21T15:38:21.458Z,14.03
2018-07-21T15:40:48.757Z,11.60
2018-07-21T15:43:16.031Z,11.00
2018-07-21T15:45:43.298Z,13.53
2018-07-21T15:48:10.666Z,11.40
2018-07-21T15:50:37.958Z,12.00
2018-07-21T15:53:05.505Z,11.80
2018-07-21T15:55:32.787Z,12.40
2018-07-21T15:58:00.052Z,11.90
2018-07-21T16:00:27.341Z,12.93
2018-07-21T16:02:54.586Z,11.77
2018-07-21T16:05:21.877Z,11.30
2018-07-21T16:07:49.121Z,11.13
2018-07-21T16:10:16.389Z,13.70
2018-07-21T16:12:43.662Z,12.23
2018-07-21T16:15:10.990Z,11.80
2018-07-21T16:17:38.283Z,12.70
2018-07-21T16:20:05.636Z,11.43
2018-07-21T16:22:32.913Z,11.80
2018-07-21T16:25:00.208Z,12.20
2018-07-21T16:27:27.490Z,12.00
2018-07-21T16:29:54.949Z,12.50
2018-07-21T16:32:22.206Z,12.20
2018-07-21T16:34:49.483Z,13.20
2018-07-21T16:37:16.794Z,14.20
2018-07-21T16:39:44.073Z,13.60
2018-07-21T16:42:11.321Z,12.90
2018-07-21T16:44:38.726Z,12.47
2018-07-21T16:47:06.160Z,12.83
2018-07-21T16:49:33.418Z,12.83
2018-07-21T16:52:00.813Z,12.37
2018-07-21T16:54:28.094Z,12.60
2018-07-21T16:56:55.423Z,13.13
2018-07-21T16:59:22.667Z,12.53
2018-07-21T17:01:49.918Z,12.50
2018-07-21T17:04:18.091Z,13.57
2018-07-21T17:06:45.554Z,12.70
2018-07-21T17:09:12.896Z,12.63
2018-07-21T17:11:40.258Z,13.63
2018-07-21T17:14:08.261Z,13.40
2018-07-21T17:16:35.527Z,14.07
2018-07-21T17:19:03.391Z,13.13
2018-07-21T17:21:30.702Z,13.57
2018-07-21T17:23:57.973Z,13.90
2018-07-21T17:26:25.392Z,13.90
2018-07-21T17:28:52.741Z,14.77
2018-07-21T17:31:20.078Z,13.67
2018-07-21T17:33:47.345Z,14.30
2018-07-21T17:36:14.633Z,13.80
2018-07-21T17:38:41.880Z,14.07
2018-07-21T17:41:09.135Z,13.40
2018-07-21T17:43:36.472Z,13.83
2018-07-21T17:46:04.007Z,13.17
2018-07-21T17:48:31.344Z,13.60
2018-07-21T17:50:58.674Z,13.40
2018-07-21T17:53:25.967Z,13.13
2018-07-21T17:55:53.236Z,13.73
2018-07-21T17:58:20.594Z,14.87
2018-07-21T18:00:47.999Z,13.03
2018-07-21T18:03:15.317Z,13.40
2018-07-21T18:05:42.625Z,13.40
2018-07-21T18:08:09.901Z,12.77
2018-07-21T18:10:37.404Z,13.07
2018-07-21T18:13:04.698Z,14.00
2018-07-21T18:15:32.024Z,13.67
2018-07-21T18:17:59.315Z,13.13
2018-07-21T18:20:26.622Z,13.60
2018-07-21T18:22:53.973Z,14.40
2018-07-21T18:25:21.296Z,11.73
2018-07-21T18:27:48.612Z,14.10
2018-07-21T18:30:15.878Z,14.40
2018-07-21T18:32:43.192Z,13.90
2018-07-21T18:35:10.461Z,14.13
2018-07-21T18:37:37.733Z,14.17
2018-07-21T18:40:05.120Z,13.83
2018-07-21T18:42:32.358Z,14.10
2018-07-21T18:44:59.638Z,13.90
2018-07-21T18:47:26.979Z,14.40
2018-07-21T18:49:54.232Z,15.40
2018-07-21T18:52:21.578Z,14.70
2018-07-21T18:54:48.855Z,13.57
2018-07-21T18:57:16.169Z,13.37
2018-07-21T18:59:43.494Z,12.70
2018-07-21T19:02:10.813Z,12.50
2018-07-21T19:04:38.070Z,12.30
2018-07-21T19:07:05.420Z,11.30
2018-07-21T19:09:32.667Z,11.67
2018-07-21T19:12:05.446Z,10.70
2018-07-21T19:14:32.873Z,11.33
2018-07-21T19:17:00.105Z,11.53
2018-07-21T19:19:32.824Z,11.00
2018-07-21T19:22:00.104Z,11.60
2018-07-21T19:24:27.484Z,12.17
2018-07-21T19:27:00.084Z,11.73
2018-07-21T19:29:27.527Z,12.50
2018-07-21T19:32:00.328Z,12.27
2018-07-21T19:34:27.518Z,11.67
2018-07-21T19:36:54.825Z,10.73
2018-07-21T19:39:22.102Z,12.03
2018-07-21T19:41:54.865Z,12.10
2018-07-21T19:44:22.149Z,11.93
2018-07-21T19:46:49.428Z,11.30
2018-07-21T19:49:16.711Z,11.10
2018-07-21T19:51:43.959Z,12.00
2018-07-21T19:54:11.285Z,11.83
2018-07-21T19:56:38.625Z,13.00
2018-07-21T19:59:05.849Z,13.63
2018-07-21T20:01:33.135Z,12.60
2018-07-21T20:04:00.446Z,11.80
2018-07-21T20:06:27.805Z,11.90
2018-07-21T20:08:55.067Z,11.13
2018-07-21T20:11:22.361Z,11.10
2018-07-21T20:13:49.674Z,11.37
2018-07-21T20:16:16.978Z,12.17
2018-07-21T20:18:44.286Z,12.77
2018-07-21T20:21:11.594Z,12.50
2018-07-21T20:23:38.872Z,13.30
2018-07-21T20:26:06.207Z,12.70
2018-07-21T20:28:33.500Z,12.63
2018-07-21T20:31:00.838Z,12.77
2018-07-21T20:33:28.250Z,12.20
2018-07-21T20:35:55.558Z,12.37
2018-07-21T20:38:22.926Z,12.20
2018-07-21T20:40:50.201Z,12.87
2018-07-21T20:43:17.487Z,12.47
2018-07-21T20:45:44.752Z,12.10
2018-07-21T20:48:12.013Z,13.00
2018-07-21T20:50:39.338Z,13.27
2018-07-21T20:53:06.585Z,12.90
2018-07-21T20:55:33.840Z,12.60
2018-07-21T20:58:02.816Z,13.47
2018-07-21T21:00:30.660Z,12.93
2018-07-21T21:02:57.878Z,13.47
2018-07-21T21:05:25.190Z,14.77
2018-07-21T21:07:52.465Z,12.03
2018-07-21T21:10:19.713Z,13.30
2018-07-21T21:12:46.951Z,12.80
2018-07-21T21:15:14.208Z,13.20
2018-07-21T21:17:41.441Z,14.60
2018-07-21T21:20:08.744Z,13.93
2018-07-21T21:22:36.036Z,14.30
2018-07-21T21:25:03.293Z,14.47
2018-07-21T21:27:30.558Z,13.13
2018-07-21T21:29:57.834Z,13.23
2018-07-21T21:32:25.093Z,13.43
2018-07-21T21:34:52.450Z,14.07
2018-07-21T21:37:19.742Z,14.83
2018-07-21T21:39:47.005Z,13.50
2018-07-21T21:42:14.371Z,13.03
2018-07-21T21:44:41.730Z,14.63
2018-07-21T21:47:08.974Z,13.30
2018-07-21T21:49:36.345Z,13.20
2018-07-21T21:52:03.633Z,13.60
2018-07-21T21:54:31.048Z,14.20
2018-07-21T21:56:58.340Z,13.60
2018-07-21T21:59:25.661Z,14.20
2018-07-21T22:01:52.901Z,12.70
2018-07-21T22:04:20.561Z,14.20
2018-07-21T22:06:47.849Z,13.60
2018-07-21T22:09:15.249Z,15.10
2018-07-21T22:11:42.494Z,14.97
2018-07-21T22:14:09.739Z,14.00
2018-07-21T22:16:37.033Z,14.00
2018-07-21T22:19:04.269Z,13.70
2018-07-21T22:21:31.616Z,13.80
2018-07-21T22:23:58.861Z,13.57
2018-07-21T22:26:26.104Z,13.40
2018-07-21T22:28:53.365Z,13.20
2018-07-21T22:31:20.625Z,14.40
2018-07-21T22:33:47.884Z,13.30
2018-07-21T22:36:15.137Z,13.87
2018-07-21T22:38:42.389Z,13.63
2018-07-21T22:41:09.701Z,14.87
2018-07-21T22:43:36.949Z,15.03
2018-07-21T22:46:04.329Z,14.27
2018-07-21T22:48:31.594Z,14.00
2018-07-21T22:50:58.837Z,13.43
2018-07-21T22:53:26.145Z,13.63
2018-07-21T22:55:53.385Z,13.73
2018-07-21T22:58:20.600Z,14.40
2018-07-21T23:00:47.854Z,13.47
2018-07-21T23:03:15.097Z,15.47
2018-07-21T23:05:42.374Z,13.97
2018-07-21T23:08:09.633Z,14.80
2018-07-21T23:10:36.897Z,14.07
2018-07-21T23:13:04.187Z,12.93
2018-07-21T23:15:31.441Z,15.13
2018-07-21T23:17:58.719Z,15.00
2018-07-21T23:20:26.009Z,15.20
2018-07-21T23:22:53.235Z,14.70
2018-07-21T23:25:20.505Z,15.80
2018-07-21T23:27:47.773Z,14.73
2018-07-21T23:30:15.058Z,16.13
2018-07-21T23:32:42.285Z,15.43
2018-07-21T23:35:09.514Z,15.50
2018-07-21T23:37:36.767Z,15.70
2018-07-21T23:40:04.509Z,16.20
2018-07-21T23:42:31.778Z,15.43
2018-07-21T23:44:59.030Z,14.67
2018-07-21T23:47:26.294Z,16.27
2018-07-21T23:49:53.737Z,15.20
2018-07-21T23:52:20.993Z,17.03
2018-07-21T23:54:48.325Z,17.20
2018-07-21T23:57:15.614Z,18.27
2018-07-21T23:59:42.878Z,16.70
